createdAt,value
2018-02-02T00:02:02.376Z,1.80
2018-02-02T00:04:28.508Z,4.23
2018-02-02T00:06:54.656Z,2.90
2018-02-02T00:09:20.821Z,2.70
2018-02-02T00:11:46.978Z,2.73
2018-02-02T00:14:13.154Z,3.27
2018-02-02T00:16:39.312Z,1.93
2018-02-02T00:19:05.428Z,2.17
2018-02-02T00:21:31.711Z,1.87
2018-02-02T00:23:57.892Z,2.20
2018-02-02T00:26:24.052Z,2.23
2018-02-02T00:28:50.180Z,2.93
2018-02-02T00:31:16.400Z,1.90
2018-02-02T00:33:42.540Z,2.43
2018-02-02T00:36:08.716Z,2.37
2018-02-02T00:38:34.949Z,1.80
2018-02-02T00:41:01.079Z,3.03
2018-02-02T00:43:27.249Z,2.30
2018-02-02T00:45:53.554Z,1.80
2018-02-02T00:48:19.696Z,2.30
2018-02-02T00:50:51.943Z,2.57
2018-02-02T00:53:18.240Z,1.80
2018-02-02T00:55:44.380Z,2.60
2018-02-02T00:58:10.561Z,1.70
2018-02-02T01:00:36.772Z,2.00
2018-02-02T01:03:02.937Z,1.87
2018-02-02T01:05:29.083Z,2.43
2018-02-02T01:07:55.343Z,2.33
2018-02-02T01:10:21.476Z,2.13
2018-02-02T01:12:47.622Z,1.50
2018-02-02T01:15:13.779Z,2.50
2018-02-02T01:17:39.901Z,2.27
2018-02-02T01:20:06.052Z,1.80
2018-02-02T01:22:32.198Z,1.50
2018-02-02T01:24:58.389Z,1.93
2018-02-02T01:27:24.560Z,2.77
2018-02-02T01:29:50.741Z,1.93
2018-02-02T01:32:16.887Z,2.63
2018-02-02T01:34:43.073Z,1.70
2018-02-02T01:37:09.243Z,1.70
2018-02-02T01:39:35.368Z,1.60
2018-02-02T01:42:01.522Z,1.70
2018-02-02T01:44:27.698Z,1.90
2018-02-02T01:46:53.866Z,1.60
2018-02-02T01:49:20.027Z,1.70
2018-02-02T01:51:46.172Z,2.17
2018-02-02T01:54:12.352Z,1.33
2018-02-02T01:56:38.487Z,2.17
2018-02-02T01:59:04.666Z,2.70
2018-02-02T02:01:30.897Z,1.80
2018-02-02T02:03:57.067Z,2.40
2018-02-02T02:06:23.215Z,1.50
2018-02-02T02:08:49.453Z,1.83
2018-02-02T02:11:15.592Z,1.97
2018-02-02T02:13:41.731Z,2.00
2018-02-02T02:16:07.971Z,2.40
2018-02-02T02:18:34.870Z,2.47
2018-02-02T02:21:01.017Z,2.23
2018-02-02T02:23:27.214Z,2.73
2018-02-02T02:25:53.376Z,2.57
2018-02-02T02:28:19.512Z,2.50
2018-02-02T02:30:45.760Z,2.60
2018-02-02T02:33:11.880Z,2.57
2018-02-02T02:35:38.019Z,2.37
2018-02-02T02:38:04.212Z,1.70
2018-02-02T02:40:30.360Z,2.43
2018-02-02T02:42:56.535Z,1.50
2018-02-02T02:45:22.675Z,2.20
2018-02-02T02:47:48.823Z,1.60
2018-02-02T02:50:15.011Z,1.77
2018-02-02T02:52:41.175Z,2.03
2018-02-02T02:55:07.330Z,1.60
2018-02-02T02:57:33.464Z,1.63
2018-02-02T02:59:59.791Z,1.80
2018-02-02T03:02:26.544Z,1.70
2018-02-02T03:04:52.670Z,1.83
2018-02-02T03:07:18.843Z,2.33
2018-02-02T03:09:44.983Z,1.90
2018-02-02T03:12:11.137Z,2.30
2018-02-02T03:14:37.389Z,1.80
2018-02-02T03:17:03.518Z,2.33
2018-02-02T03:19:29.664Z,1.67
2018-02-02T03:21:55.815Z,2.07
2018-02-02T03:24:21.988Z,1.73
2018-02-02T03:26:48.128Z,3.73
2018-02-02T03:29:14.314Z,1.80
2018-02-02T03:31:40.487Z,2.07
2018-02-02T03:34:06.718Z,1.80
2018-02-02T03:36:32.964Z,1.70
2018-02-02T03:38:59.129Z,1.83
2018-02-02T03:41:25.246Z,2.10
2018-02-02T03:43:51.409Z,2.50
2018-02-02T03:46:17.556Z,2.13
2018-02-02T03:48:43.728Z,2.33
2018-02-02T03:51:09.949Z,2.10
2018-02-02T03:53:36.109Z,2.57
2018-02-02T03:56:02.244Z,1.73
2018-02-02T03:58:28.442Z,2.40
2018-02-02T04:00:55.270Z,1.77
2018-02-02T04:03:21.473Z,2.27
2018-02-02T04:05:47.646Z,1.80
2018-02-02T04:08:13.788Z,2.20
2018-02-02T04:10:39.956Z,1.30
2018-02-02T04:13:06.134Z,2.37
2018-02-02T04:15:32.313Z,2.00
2018-02-02T04:17:58.441Z,2.37
2018-02-02T04:20:24.674Z,2.60
2018-02-02T04:22:50.825Z,2.53
2018-02-02T04:25:18.591Z,2.23
2018-02-02T04:27:44.811Z,2.40
2018-02-02T04:30:11.028Z,3.30
2018-02-02T04:32:37.237Z,2.30
2018-02-02T04:35:10.351Z,3.07
2018-02-02T04:37:36.537Z,2.87
2018-02-02T04:40:02.670Z,1.90
2018-02-02T04:42:28.899Z,3.17
2018-02-02T04:44:55.054Z,2.60
2018-02-02T04:47:21.208Z,2.47
2018-02-02T04:49:47.439Z,2.17
2018-02-02T04:52:13.634Z,3.20
2018-02-02T04:54:39.758Z,2.40
2018-02-02T04:57:05.928Z,2.77
2018-02-02T04:59:32.048Z,2.70
2018-02-02T05:01:58.231Z,3.37
2018-02-02T05:04:24.518Z,2.47
2018-02-02T05:06:50.683Z,4.30
2018-02-02T05:09:16.835Z,3.40
2018-02-02T05:11:43.039Z,2.67
2018-02-02T05:14:09.203Z,2.47
2018-02-02T05:16:35.339Z,2.97
2018-02-02T05:19:01.552Z,3.67
2018-02-02T05:21:27.764Z,2.90
2018-02-02T05:23:53.924Z,3.17
2018-02-02T05:26:20.099Z,2.87
2018-02-02T05:28:46.245Z,3.13
2018-02-02T05:31:12.386Z,3.93
2018-02-02T05:33:38.563Z,4.50
2018-02-02T05:36:04.727Z,3.50
2018-02-02T05:38:30.903Z,3.20
2018-02-02T05:40:57.088Z,4.10
2018-02-02T05:43:23.268Z,5.10
2018-02-02T05:45:49.407Z,3.60
2018-02-02T05:48:15.558Z,4.30
2018-02-02T05:50:41.739Z,3.60
2018-02-02T05:53:07.866Z,3.40
2018-02-02T05:55:34.030Z,3.27
2018-02-02T05:58:00.252Z,2.83
2018-02-02T06:00:26.406Z,3.03
2018-02-02T06:02:52.568Z,3.37
2018-02-02T06:05:18.718Z,3.00
2018-02-02T06:07:44.878Z,2.80
2018-02-02T06:10:11.067Z,3.47
2018-02-02T06:12:37.233Z,2.90
2018-02-02T06:15:03.409Z,3.07
2018-02-02T06:17:29.579Z,3.07
2018-02-02T06:19:55.809Z,4.33
2018-02-02T06:22:21.955Z,3.03
2018-02-02T06:24:48.165Z,2.90
2018-02-02T06:27:14.318Z,2.97
2018-02-02T06:29:40.464Z,3.70
2018-02-02T06:32:06.607Z,3.73
2018-02-02T06:34:32.768Z,2.80
2018-02-02T06:37:01.927Z,3.30
2018-02-02T06:39:28.168Z,2.60
2018-02-02T06:41:54.348Z,2.97
2018-02-02T06:44:20.475Z,3.30
2018-02-02T06:46:46.703Z,3.73
2018-02-02T06:49:12.894Z,3.13
2018-02-02T06:51:39.089Z,3.67
2018-02-02T06:54:05.335Z,3.33
2018-02-02T06:56:31.617Z,3.70
2018-02-02T06:58:57.773Z,3.53
2018-02-02T07:01:23.993Z,3.03
2018-02-02T07:03:50.166Z,3.07
2018-02-02T07:06:16.344Z,2.80
2018-02-02T07:08:42.566Z,3.93
2018-02-02T07:11:08.808Z,3.10
2018-02-02T07:13:34.942Z,4.00
2018-02-02T07:16:01.166Z,3.10
2018-02-02T07:18:27.350Z,3.93
2018-02-02T07:20:53.556Z,3.03
2018-02-02T07:23:19.696Z,3.73
2018-02-02T07:25:46.843Z,3.03
2018-02-02T07:28:12.979Z,3.73
2018-02-02T07:30:39.285Z,3.47
2018-02-02T07:33:05.431Z,3.73
2018-02-02T07:35:31.587Z,3.67
2018-02-02T07:37:57.854Z,2.77
2018-02-02T07:40:24.004Z,4.27
2018-02-02T07:42:50.161Z,2.70
2018-02-02T07:45:16.399Z,2.90
2018-02-02T07:47:42.550Z,3.03
2018-02-02T07:50:08.751Z,3.37
2018-02-02T07:52:34.975Z,4.07
2018-02-02T07:55:01.204Z,3.93
2018-02-02T07:57:27.403Z,3.67
2018-02-02T07:59:53.581Z,3.67
2018-02-02T08:02:19.863Z,3.57
2018-02-02T08:04:46.077Z,3.60
2018-02-02T08:07:12.225Z,3.27
2018-02-02T08:09:38.433Z,4.50
2018-02-02T08:12:04.617Z,3.33
2018-02-02T08:14:30.945Z,3.13
2018-02-02T08:16:57.094Z,3.83
2018-02-02T08:19:23.304Z,2.93
2018-02-02T08:21:49.529Z,3.20
2018-02-02T08:24:15.732Z,3.17
2018-02-02T08:26:41.870Z,3.53
2018-02-02T08:29:08.071Z,3.03
2018-02-02T08:31:34.278Z,2.97
2018-02-02T08:34:00.468Z,4.77
2018-02-02T08:36:26.674Z,2.77
2018-02-02T08:38:52.926Z,3.27
2018-02-02T08:41:19.023Z,3.67
2018-02-02T08:43:45.166Z,3.60
2018-02-02T08:46:11.296Z,4.57
2018-02-02T08:48:37.482Z,3.60
2018-02-02T08:51:03.669Z,3.50
2018-02-02T08:53:29.815Z,2.40
2018-02-02T08:55:55.922Z,3.03
2018-02-02T08:58:22.062Z,2.60
2018-02-02T09:00:54.310Z,2.97
2018-02-02T09:03:20.452Z,3.57
2018-02-02T09:05:46.640Z,4.20
2018-02-02T09:08:12.753Z,3.90
2018-02-02T09:10:38.925Z,3.20
2018-02-02T09:13:05.094Z,3.57
2018-02-02T09:15:33.381Z,3.20
2018-02-02T09:17:59.590Z,3.30
2018-02-02T09:20:25.792Z,3.40
2018-02-02T09:22:51.924Z,3.90
2018-02-02T09:25:18.192Z,2.97
2018-02-02T09:27:44.266Z,3.37
2018-02-02T09:30:10.479Z,2.97
2018-02-02T09:32:36.694Z,2.80
2018-02-02T09:35:02.938Z,3.70
2018-02-02T09:37:29.200Z,3.60
2018-02-02T09:39:55.408Z,3.27
2018-02-02T09:42:21.574Z,3.00
2018-02-02T09:44:47.779Z,2.77
2018-02-02T09:47:13.947Z,3.20
2018-02-02T09:49:40.137Z,2.83
2018-02-02T09:52:06.341Z,2.70
2018-02-02T09:54:32.516Z,1.97
2018-02-02T09:56:58.683Z,1.93
2018-02-02T09:59:24.788Z,3.40
2018-02-02T10:01:51.013Z,2.37
2018-02-02T10:04:17.168Z,1.33
2018-02-02T10:06:43.420Z,1.10
2018-02-02T10:09:09.660Z,1.03
2018-02-02T10:11:35.954Z,0.97
2018-02-02T10:14:02.106Z,0.80
2018-02-02T10:16:28.246Z,0.60
2018-02-02T10:18:54.428Z,1.13
2018-02-02T10:21:20.622Z,0.70
2018-02-02T10:23:46.753Z,1.17
2018-02-02T10:26:12.933Z,1.13
2018-02-02T10:28:39.170Z,1.50
2018-02-02T10:31:05.412Z,1.87
2018-02-02T10:33:31.540Z,1.70
2018-02-02T10:35:57.696Z,2.37
2018-02-02T10:38:23.852Z,2.10
2018-02-02T10:40:50.039Z,2.67
2018-02-02T10:43:16.186Z,2.10
2018-02-02T10:45:42.352Z,2.17
2018-02-02T10:48:08.515Z,2.50
2018-02-02T10:50:34.853Z,2.63
2018-02-02T10:53:00.995Z,3.03
2018-02-02T10:55:27.127Z,2.80
2018-02-02T10:57:53.270Z,2.50
2018-02-02T11:00:19.552Z,2.20
2018-02-02T11:02:51.843Z,2.47
2018-02-02T11:05:18.053Z,3.90
2018-02-02T11:07:44.302Z,2.30
2018-02-02T11:10:10.440Z,2.37
2018-02-02T11:12:36.733Z,4.23
2018-02-02T11:15:02.983Z,3.97
2018-02-02T11:17:29.177Z,2.70
2018-02-02T11:19:55.384Z,2.80
2018-02-02T11:22:21.593Z,2.73
2018-02-02T11:24:47.718Z,3.07
2018-02-02T11:27:13.864Z,3.73
2018-02-02T11:29:40.056Z,2.13
2018-02-02T11:32:06.487Z,2.57
2018-02-02T11:34:32.659Z,3.17
2018-02-02T11:36:58.875Z,3.03
2018-02-02T11:39:25.061Z,2.40
2018-02-02T11:41:51.181Z,1.90
2018-02-02T11:44:17.334Z,1.80
2018-02-02T11:46:43.469Z,2.23
2018-02-02T11:49:09.741Z,4.43
2018-02-02T11:51:35.964Z,2.10
2018-02-02T11:54:02.114Z,1.87
2018-02-02T11:56:28.278Z,1.80
2018-02-02T11:58:54.464Z,2.33
2018-02-02T12:01:20.664Z,2.10
2018-02-02T12:03:46.804Z,1.90
2018-02-02T12:06:12.996Z,1.43
2018-02-02T12:08:39.159Z,1.70
2018-02-02T12:11:05.301Z,1.87
2018-02-02T12:13:31.450Z,2.00
2018-02-02T12:15:57.765Z,2.37
2018-02-02T12:18:24.037Z,2.33
2018-02-02T12:20:50.289Z,1.37
2018-02-02T12:23:22.534Z,1.40
2018-02-02T12:25:54.620Z,2.83
2018-02-02T12:28:26.684Z,1.47
2018-02-02T12:30:58.950Z,3.67
2018-02-02T12:33:31.234Z,2.07
2018-02-02T12:35:58.449Z,2.40
2018-02-02T12:38:24.716Z,2.23
2018-02-02T12:40:50.866Z,2.13
2018-02-02T12:43:17.005Z,2.47
2018-02-02T12:45:43.198Z,2.50
2018-02-02T12:51:19.260Z,2.40
2018-02-02T12:53:45.439Z,1.93
2018-02-02T12:56:11.596Z,1.83
2018-02-02T12:58:37.807Z,1.70
2018-02-02T13:01:03.958Z,1.73
2018-02-02T13:03:30.084Z,2.17
2018-02-02T13:05:56.239Z,1.97
2018-02-02T13:08:22.453Z,1.60
2018-02-02T13:10:48.708Z,1.87
2018-02-02T13:13:14.903Z,2.17
2018-02-02T13:15:41.073Z,3.00
2018-02-02T13:18:07.205Z,2.40
2018-02-02T13:20:33.352Z,2.37
2018-02-02T13:22:59.441Z,3.20
2018-02-02T13:25:25.634Z,2.13
2018-02-02T13:27:51.786Z,2.30
2018-02-02T13:30:17.887Z,2.17
2018-02-02T13:32:43.979Z,2.53
2018-02-02T13:35:10.137Z,2.90
2018-02-02T13:37:36.412Z,2.80
2018-02-02T13:40:02.532Z,2.00
2018-02-02T13:42:28.632Z,2.07
2018-02-02T13:44:54.782Z,1.93
2018-02-02T13:47:20.917Z,1.83
2018-02-02T13:49:47.064Z,1.87
2018-02-02T13:52:13.167Z,2.20
2018-02-02T13:54:39.282Z,1.90
2018-02-02T13:57:05.386Z,1.40
2018-02-02T13:59:31.543Z,3.00
2018-02-02T14:01:57.665Z,1.50
2018-02-02T14:04:23.798Z,1.50
2018-02-02T14:06:49.930Z,1.53
2018-02-02T14:09:16.103Z,1.70
2018-02-02T14:11:42.226Z,1.70
2018-02-02T14:14:08.360Z,1.40
2018-02-02T14:16:34.493Z,1.47
2018-02-02T14:19:00.650Z,1.40
2018-02-02T14:21:26.793Z,1.50
2018-02-02T14:23:52.888Z,1.70
2018-02-02T14:26:19.029Z,1.57
2018-02-02T14:28:45.170Z,1.73
2018-02-02T14:31:11.301Z,2.23
2018-02-02T14:33:37.385Z,1.67
2018-02-02T14:36:03.523Z,1.83
2018-02-02T14:38:29.713Z,1.73
2018-02-02T14:40:55.832Z,1.50
2018-02-02T14:43:21.971Z,1.60
2018-02-02T14:45:48.115Z,1.87
2018-02-02T14:48:14.350Z,1.47
2018-02-02T14:50:40.470Z,1.33
2018-02-02T14:53:06.860Z,2.10
2018-02-02T14:55:33.042Z,1.47
2018-02-02T14:57:59.262Z,1.23
2018-02-02T15:00:25.433Z,1.17
2018-02-02T15:02:51.523Z,1.30
2018-02-02T15:05:17.647Z,1.33
2018-02-02T15:07:43.808Z,1.40
2018-02-02T15:10:10.198Z,1.40
2018-02-02T15:12:36.311Z,2.50
2018-02-02T15:15:02.490Z,2.80
2018-02-02T15:17:28.592Z,3.93
2018-02-02T15:19:54.821Z,2.80
2018-02-02T15:22:24.811Z,12.80
2018-02-02T15:24:50.931Z,2.20
2018-02-02T15:27:17.116Z,1.40
2018-02-02T15:29:43.295Z,1.80
2018-02-02T15:32:09.555Z,1.80
2018-02-02T15:34:35.705Z,1.70
2018-02-02T15:37:01.867Z,1.60
2018-02-02T15:39:28.075Z,1.73
2018-02-02T15:41:54.156Z,1.80
2018-02-02T15:44:20.357Z,2.07
2018-02-02T15:46:46.624Z,1.50
2018-02-02T15:49:12.832Z,4.10
2018-02-02T15:51:39.126Z,1.50
2018-02-02T15:54:05.251Z,1.60
2018-02-02T15:56:31.505Z,2.00
2018-02-02T15:58:57.693Z,1.93
2018-02-02T16:01:23.854Z,1.37
2018-02-02T16:03:50.083Z,1.83
2018-02-02T16:06:16.228Z,1.37
2018-02-02T16:08:42.431Z,1.80
2018-02-02T16:11:08.601Z,1.67
2018-02-02T16:13:34.781Z,1.73
2018-02-02T16:16:00.979Z,2.70
2018-02-02T16:18:27.183Z,2.23
2018-02-02T16:20:53.427Z,2.57
2018-02-02T16:23:19.558Z,4.90
2018-02-02T16:25:45.746Z,4.13
2018-02-02T16:28:11.899Z,1.60
2018-02-02T16:30:38.014Z,1.80
2018-02-02T16:33:04.318Z,1.93
2018-02-02T16:35:30.536Z,1.90
2018-02-02T16:37:56.751Z,1.70
2018-02-02T16:40:22.939Z,1.87
2018-02-02T16:42:49.097Z,2.43
2018-02-02T16:45:15.300Z,2.43
2018-02-02T16:47:41.452Z,2.60
2018-02-02T16:50:07.706Z,3.33
2018-02-02T16:52:33.824Z,3.50
2018-02-02T16:55:00.087Z,4.60
2018-02-02T16:57:26.209Z,9.40
2018-02-02T16:59:52.357Z,7.37
2018-02-02T17:02:18.484Z,3.47
2018-02-02T17:04:44.658Z,2.33
2018-02-02T17:07:10.803Z,2.50
2018-02-02T17:09:36.926Z,3.43
2018-02-02T17:12:03.122Z,3.33
2018-02-02T17:14:29.282Z,2.67
2018-02-02T17:16:55.455Z,5.17
2018-02-02T17:19:21.596Z,6.00
2018-02-02T17:21:47.729Z,8.97
2018-02-02T17:24:13.949Z,5.57
2018-02-02T17:26:40.110Z,14.23
2018-02-02T17:29:06.228Z,14.07
2018-02-02T17:31:32.389Z,12.30
2018-02-02T17:33:58.566Z,6.30
2018-02-02T17:36:24.727Z,4.23
2018-02-02T17:38:50.896Z,6.97
2018-02-02T17:41:17.045Z,11.10
2018-02-02T17:43:43.201Z,9.30
2018-02-02T17:46:09.391Z,8.70
2018-02-02T17:48:35.545Z,7.70
2018-02-02T17:51:01.712Z,7.60
2018-02-02T17:53:27.907Z,7.00
2018-02-02T17:55:54.063Z,7.67
2018-02-02T17:58:20.212Z,4.90
2018-02-02T18:00:59.294Z,4.80
2018-02-02T18:03:25.509Z,4.37
2018-02-02T18:05:51.701Z,4.97
2018-02-02T18:08:17.955Z,3.43
2018-02-02T18:10:44.112Z,4.60
2018-02-02T18:13:10.199Z,4.33
2018-02-02T18:15:36.376Z,7.33
2018-02-02T18:18:02.584Z,4.43
2018-02-02T18:20:28.727Z,4.13
2018-02-02T18:22:54.895Z,3.90
2018-02-02T18:25:21.183Z,3.53
2018-02-02T18:27:47.351Z,3.80
2018-02-02T18:30:13.509Z,4.23
2018-02-02T18:32:39.701Z,4.00
2018-02-02T18:35:05.892Z,4.57
2018-02-02T18:37:31.996Z,3.90
2018-02-02T18:39:58.274Z,4.43
2018-02-02T18:42:24.446Z,4.40
2018-02-02T18:44:52.270Z,5.60
2018-02-02T18:47:18.562Z,7.00
2018-02-02T18:49:44.756Z,18.30
2018-02-02T18:52:10.923Z,18.57
2018-02-02T18:54:37.224Z,17.30
2018-02-02T18:57:03.471Z,17.47
2018-02-02T18:59:29.620Z,17.20
2018-02-02T19:01:55.907Z,7.87
2018-02-02T19:04:22.146Z,5.40
2018-02-02T19:06:48.299Z,7.27
2018-02-02T19:09:14.513Z,6.13
2018-02-02T19:11:40.691Z,5.97
2018-02-02T19:14:06.885Z,4.73
2018-02-02T19:16:33.232Z,5.30
2018-02-02T19:19:00.045Z,4.57
2018-02-02T19:21:26.235Z,3.93
2018-02-02T19:23:52.400Z,4.87
2018-02-02T19:26:18.656Z,3.83
2018-02-02T19:28:44.846Z,3.37
2018-02-02T19:31:11.072Z,4.10
2018-02-02T19:33:37.385Z,4.53
2018-02-02T19:36:03.672Z,3.67
2018-02-02T19:38:29.879Z,3.70
2018-02-02T19:40:56.076Z,5.40
2018-02-02T19:43:22.466Z,12.37
2018-02-02T19:45:48.945Z,8.70
2018-02-02T19:48:21.627Z,13.57
2018-02-02T19:50:48.274Z,15.53
2018-02-02T19:53:14.635Z,13.07
2018-02-02T19:55:41.801Z,6.47
2018-02-02T19:58:08.004Z,9.83
2018-02-02T20:00:34.851Z,8.10
2018-02-02T20:03:01.180Z,9.17
2018-02-02T20:05:27.544Z,7.93
2018-02-02T20:07:53.708Z,12.40
2018-02-02T20:10:19.900Z,14.07
2018-02-02T20:12:46.064Z,11.77
2018-02-02T20:15:12.314Z,9.57
2018-02-02T20:17:38.484Z,9.27
2018-02-02T20:20:04.768Z,9.87
2018-02-02T20:22:30.952Z,8.97
2018-02-02T20:24:57.162Z,9.60
2018-02-02T20:27:23.328Z,8.43
2018-02-02T20:29:49.467Z,7.63
2018-02-02T20:32:15.669Z,9.33
2018-02-02T20:34:41.813Z,8.80
2018-02-02T20:37:08.022Z,10.03
2018-02-02T20:39:34.209Z,10.50
2018-02-02T20:42:01.780Z,10.37
2018-02-02T20:44:27.957Z,8.67
2018-02-02T20:46:54.163Z,12.20
2018-02-02T20:49:20.324Z,8.57
2018-02-02T20:51:46.528Z,8.57
2018-02-02T20:54:12.727Z,9.33
2018-02-02T20:56:38.954Z,7.97
2018-02-02T20:59:05.159Z,7.83
2018-02-02T21:01:31.399Z,6.77
2018-02-02T21:03:57.530Z,7.90
2018-02-02T21:06:23.785Z,7.87
2018-02-02T21:08:49.995Z,8.23
2018-02-02T21:11:16.188Z,7.93
2018-02-02T21:13:42.363Z,6.70
2018-02-02T21:16:08.624Z,5.80
2018-02-02T21:18:35.517Z,6.00
2018-02-02T21:21:01.722Z,6.03
2018-02-02T21:23:27.990Z,5.70
2018-02-02T21:25:54.145Z,5.53
2018-02-02T21:28:20.349Z,6.10
2018-02-02T21:30:46.539Z,6.57
2018-02-02T21:33:12.661Z,7.13
2018-02-02T21:35:38.795Z,8.53
2018-02-02T21:38:05.021Z,6.97
2018-02-02T21:40:31.171Z,6.97
2018-02-02T21:42:57.474Z,8.77
2018-02-02T21:45:23.734Z,7.90
2018-02-02T21:47:50.013Z,6.77
2018-02-02T21:50:16.170Z,7.30
2018-02-02T21:52:42.387Z,7.90
2018-02-02T21:55:08.550Z,7.70
2018-02-02T21:57:34.728Z,6.80
2018-02-02T22:00:00.975Z,7.37
2018-02-02T22:02:27.091Z,7.53
2018-02-02T22:04:53.320Z,7.43
2018-02-02T22:07:19.499Z,7.10
2018-02-02T22:09:46.453Z,6.87
2018-02-02T22:12:12.591Z,8.43
2018-02-02T22:14:38.791Z,7.03
2018-02-02T22:17:04.998Z,7.23
2018-02-02T22:19:31.216Z,6.57
2018-02-02T22:21:57.392Z,7.00
2018-02-02T22:24:23.584Z,6.63
2018-02-02T22:26:49.747Z,7.77
2018-02-02T22:29:16.124Z,7.40
2018-02-02T22:31:42.274Z,8.13
2018-02-02T22:34:08.523Z,8.10
2018-02-02T22:36:34.697Z,7.07
2018-02-02T22:39:00.913Z,7.20
2018-02-02T22:41:27.072Z,7.00
2018-02-02T22:43:53.300Z,8.33
2018-02-02T22:46:19.503Z,8.63
2018-02-02T22:48:46.435Z,9.00
2018-02-02T22:51:12.586Z,7.23
2018-02-02T22:53:38.756Z,7.77
2018-02-02T22:56:04.937Z,7.57
2018-02-02T22:58:31.179Z,7.20
2018-02-02T23:00:57.304Z,7.67
2018-02-02T23:03:23.434Z,8.47
2018-02-02T23:05:49.587Z,7.27
2018-02-02T23:08:15.870Z,7.43
2018-02-02T23:10:42.637Z,9.77
2018-02-02T23:13:08.824Z,8.10
2018-02-02T23:15:35.021Z,6.70
2018-02-02T23:18:01.155Z,7.27
2018-02-02T23:20:27.361Z,6.50
2018-02-02T23:22:53.493Z,8.13
2018-02-02T23:25:19.649Z,9.20
2018-02-02T23:27:45.853Z,8.30
2018-02-02T23:30:18.927Z,6.67
2018-02-02T23:32:45.059Z,6.43
2018-02-02T23:35:11.242Z,9.63
2018-02-02T23:37:37.482Z,9.57
2018-02-02T23:40:03.712Z,18.67
2018-02-02T23:42:29.871Z,8.77
2018-02-02T23:44:56.081Z,10.17
2018-02-02T23:47:22.189Z,11.60
2018-02-02T23:49:48.450Z,11.40
2018-02-02T23:52:14.617Z,10.70
2018-02-02T23:54:40.761Z,10.30
2018-02-02T23:57:06.977Z,9.63
2018-02-02T23:59:33.174Z,10.47
